Time;durP1;ratioP1;P1;durP2;ratioP2;P2;SDS_P1;SDS_P2;PMS_P1;PMS_P2;Temp;Humidity;BMP_temperature;BMP_pressure;BME280_temperature;BME280_humidity;BME280_pressure;Samples;Min_cycle;Max_cycle;Signal;HPM_P1;HPM_P2
2023/06/14 00:00:57;;;;;;;2.30;1.27;;;;;;;23.26;34.44;100742.22;5165349;28;20211;-82
2023/06/14 00:03:48;;;;;;;1.77;1.15;;;;;;;23.25;34.20;100737.84;5171914;28;20034;-81
2023/06/14 00:06:39;;;;;;;1.02;0.68;;;;;;;23.21;34.75;100741.75;5152378;28;20030;-83
2023/06/14 00:09:30;;;;;;;1.25;1.08;;;;;;;23.17;34.82;100739.41;5139988;28;20490;-81
2023/06/14 00:12:20;;;;;;;1.00;0.65;;;;;;;23.14;34.87;100743.19;5152653;28;20039;-83
2023/06/14 00:15:11;;;;;;;1.27;1.17;;;;;;;23.09;35.01;100743.53;5139070;28;20759;-82
2023/06/14 00:18:03;;;;;;;6.95;2.03;;;;;;;23.06;34.78;100742.94;5146807;28;20034;-81
2023/06/14 00:20:53;;;;;;;0.60;0.60;;;;;;;22.97;35.57;100754.38;5117216;28;20062;-81
2023/06/14 00:23:44;;;;;;;1.70;0.70;;;;;;;22.85;35.17;100764.22;5144486;28;20281;-82
2023/06/14 00:26:35;;;;;;;0.70;0.70;;;;;;;22.84;35.06;100754.47;5141672;28;20097;-82
2023/06/14 00:29:26;;;;;;;0.60;0.60;;;;;;;22.81;34.96;100758.25;5133735;28;20518;-82
2023/06/14 00:32:18;;;;;;;0.65;0.50;;;;;;;22.74;34.69;100759.72;5150585;28;20039;-81
2023/06/14 00:35:10;;;;;;;6.68;0.90;;;;;;;22.75;35.18;100758.75;5140247;28;20086;-82
2023/06/14 00:38:02;;;;;;;0.40;0.40;;;;;;;22.76;35.17;100758.63;5142957;28;20038;-82
2023/06/14 00:40:52;;;;;;;1.38;0.95;;;;;;;22.75;35.27;100761.44;5130326;28;20419;-82
2023/06/14 00:43:43;;;;;;;1.85;1.02;;;;;;;22.67;35.49;100763.84;5132393;28;20062;-82
2023/06/14 00:46:34;;;;;;;1.33;1.23;;;;;;;22.59;35.17;100765.28;5123934;28;20046;-80
2023/06/14 00:49:25;;;;;;;0.55;0.55;;;;;;;22.54;35.12;100770.13;5123416;28;20054;-81
2023/06/14 00:52:17;;;;;;;1.60;1.27;;;;;;;22.53;35.71;100772.94;5121068;28;20022;-83
2023/06/14 00:55:08;;;;;;;0.30;0.30;;;;;;;22.50;35.64;100773.16;5144701;28;20069;-80
2023/06/14 00:57:59;;;;;;;0.73;0.73;;;;;;;22.43;35.65;100767.44;5153333;28;20535;-83
2023/06/14 01:00:51;;;;;;;0.45;0.45;;;;;;;22.41;35.66;100774.72;5162601;28;20117;-82
2023/06/14 01:03:42;;;;;;;0.95;0.95;;;;;;;22.38;35.82;100769.56;5168506;28;20046;-82
2023/06/14 01:07:21;;;;;;;0.80;0.80;;;;;;;22.34;35.66;100776.97;5157730;28;20042;-81
2023/06/14 01:10:47;;;;;;;0.63;0.63;;;;;;;22.30;35.74;100773.69;5136891;28;20026;-82
2023/06/14 01:13:40;;;;;;;0.88;0.82;;;;;;;22.26;36.00;100769.56;5158555;28;20709;-82
2023/06/14 01:16:32;;;;;;;0.98;0.95;;;;;;;22.22;36.05;100776.06;5163533;28;20058;-83
2023/06/14 01:19:25;;;;;;;0.68;0.50;;;;;;;22.17;36.13;100775.59;5175645;28;20053;-82
2023/06/14 01:22:16;;;;;;;1.13;1.02;;;;;;;22.16;36.52;100773.88;5160128;28;20085;-82
2023/06/14 01:25:07;;;;;;;0.70;0.52;;;;;;;22.15;36.78;100772.16;5156617;28;21045;-81
2023/06/14 01:28:01;;;;;;;1.23;1.15;;;;;;;22.11;37.38;100768.00;5137193;28;20027;-81
2023/06/14 01:30:53;;;;;;;;;;;;;;;22.07;36.52;100769.22;5137500;28;20039;-82
2023/06/14 01:33:45;;;;;;;0.60;0.30;;;;;;;22.02;36.55;100773.06;5148463;28;19921;-82
2023/06/14 01:36:39;;;;;;;1.58;1.48;;;;;;;21.99;36.85;100769.78;5153738;28;20098;-82
2023/06/14 01:39:30;;;;;;;;;;;;;;;21.95;37.45;100773.66;5155075;28;20104;-83
2023/06/14 01:42:21;;;;;;;0.90;0.82;;;;;;;21.90;37.32;100781.19;5168107;28;20635;-82
2023/06/14 01:45:12;;;;;;;1.13;1.02;;;;;;;21.86;38.04;100775.19;5171510;28;20085;-82
2023/06/14 01:48:04;;;;;;;1.40;1.30;;;;;;;21.84;37.85;100777.97;5148537;28;20128;-81
2023/06/14 01:50:55;;;;;;;0.68;0.68;;;;;;;21.80;37.71;100780.97;5156647;28;20125;-82
2023/06/14 01:53:46;;;;;;;0.52;0.52;;;;;;;21.76;38.28;100780.34;5166288;28;20030;-81
2023/06/14 01:56:37;;;;;;;1.23;1.02;;;;;;;21.73;38.17;100774.41;5142025;28;20035;-82
2023/06/14 01:59:28;;;;;;;3.80;0.95;;;;;;;21.69;38.31;100774.59;5156675;28;20102;-81
2023/06/14 02:02:19;;;;;;;0.50;0.50;;;;;;;21.67;38.55;100781.03;5151403;28;20053;-81
2023/06/14 02:05:10;;;;;;;1.30;1.02;;;;;;;21.59;38.40;100770.06;5151745;28;20065;-81
2023/06/14 02:08:01;;;;;;;1.45;1.05;;;;;;;21.55;38.19;100780.06;5172248;28;20034;-81
2023/06/14 02:10:52;;;;;;;1.42;1.33;;;;;;;21.54;39.41;100778.38;5150555;28;20040;-81
2023/06/14 02:13:42;;;;;;;0.57;0.57;;;;;;;21.46;38.84;100781.63;5164790;28;20034;-81
2023/06/14 02:16:35;;;;;;;0.77;0.75;;;;;;;21.37;38.81;100775.09;5169673;28;20135;-83
2023/06/14 02:19:26;;;;;;;1.55;1.45;;;;;;;21.31;38.87;100780.88;5156690;28;20034;-81
2023/06/14 02:22:17;;;;;;;0.20;0.20;;;;;;;21.29;38.95;100780.13;5168366;28;20030;-82
2023/06/14 02:25:08;;;;;;;0.88;0.88;;;;;;;21.27;39.05;100786.56;5142154;28;20042;-81
2023/06/14 02:27:59;;;;;;;0.85;0.85;;;;;;;21.26;39.04;100782.19;5146237;28;20113;-82
2023/06/14 02:30:50;;;;;;;0.55;0.55;;;;;;;21.20;39.06;100781.66;5167635;28;20497;-82
2023/06/14 02:33:41;;;;;;;0.30;0.30;;;;;;;21.13;39.13;100787.53;5170534;28;20034;-82
2023/06/14 02:36:32;;;;;;;0.90;0.90;;;;;;;21.07;39.53;100797.69;5151985;28;20034;-81
2023/06/14 02:39:23;;;;;;;0.75;0.52;;;;;;;21.04;39.76;100799.72;5168811;28;20038;-82
2023/06/14 02:42:14;;;;;;;2.28;2.08;;;;;;;21.01;39.50;100803.44;5169158;28;20052;-81
2023/06/14 02:45:06;;;;;;;1.25;1.13;;;;;;;21.01;39.93;100797.25;5153482;28;20092;-83
2023/06/14 02:47:57;;;;;;;1.20;0.68;;;;;;;20.96;39.69;100802.91;5155433;28;20433;-82
2023/06/14 02:50:47;;;;;;;0.88;0.70;;;;;;;20.89;39.73;100805.16;5180642;28;20039;-80
2023/06/14 02:53:38;;;;;;;1.95;1.23;;;;;;;20.86;40.00;100804.53;5155927;28;20042;-82
2023/06/14 02:56:29;;;;;;;0.60;0.60;;;;;;;20.82;40.05;100808.34;5175611;28;20045;-82
2023/06/14 02:59:21;;;;;;;0.60;0.60;;;;;;;20.78;39.87;100806.88;5172133;28;20029;-82
2023/06/14 03:02:12;;;;;;;0.80;0.77;;;;;;;20.77;40.06;100794.50;5169443;28;20030;-81
2023/06/14 03:05:03;;;;;;;1.73;1.20;;;;;;;20.74;40.79;100804.41;5160920;28;20038;-83
2023/06/14 03:07:54;;;;;;;1.95;1.10;;;;;;;20.70;39.93;100810.84;5154015;28;20026;-82
2023/06/14 03:10:49;;;;;;;0.90;0.90;;;;;;;20.65;39.94;100807.66;5166747;28;20117;-82
2023/06/14 03:13:40;;;;;;;0.80;0.80;;;;;;;20.59;40.09;100808.09;5172148;28;20031;-83
2023/06/14 03:16:31;;;;;;;2.08;1.42;;;;;;;20.57;40.49;100812.66;5161796;28;20034;-82
2023/06/14 03:19:23;;;;;;;0.52;0.52;;;;;;;20.49;40.46;100820.31;5167700;28;20053;-82
2023/06/14 03:22:14;;;;;;;1.10;0.95;;;;;;;20.42;40.50;100815.41;5139154;28;20601;-82
2023/06/14 03:25:05;;;;;;;1.17;0.77;;;;;;;20.41;40.51;100829.69;5170006;28;20117;-83
2023/06/14 03:27:56;;;;;;;1.52;0.77;;;;;;;20.37;40.62;100828.16;5173987;28;20033;-83
2023/06/14 03:30:47;;;;;;;0.43;0.43;;;;;;;20.34;40.65;100831.06;5153528;28;20381;-82
2023/06/14 03:33:39;;;;;;;0.60;0.60;;;;;;;20.26;40.63;100831.56;5153281;28;20481;-82
2023/06/14 03:36:30;;;;;;;2.38;1.17;;;;;;;20.23;40.67;100830.91;5158085;28;20104;-82
2023/06/14 03:39:21;;;;;;;1.58;1.48;;;;;;;20.13;40.18;100831.50;5167975;28;20105;-83
2023/06/14 03:42:13;;;;;;;1.33;1.23;;;;;;;20.11;40.45;100837.91;5167274;28;20039;-81
2023/06/14 03:45:07;;;;;;;0.80;0.80;;;;;;;20.11;40.49;100837.91;5154805;28;20039;-83
2023/06/14 03:48:00;;;;;;;0.68;0.68;;;;;;;20.06;40.68;100843.53;5164897;28;20109;-83
2023/06/14 03:50:51;;;;;;;1.10;0.77;;;;;;;20.03;40.58;100854.41;5167824;28;20161;-82
2023/06/14 03:53:42;;;;;;;0.95;0.95;;;;;;;20.02;40.72;100854.47;5161749;28;20052;-82
2023/06/14 03:56:32;;;;;;;1.48;1.35;;;;;;;19.97;40.58;100847.66;5174764;28;20043;-81
2023/06/14 03:59:23;;;;;;;0.50;0.45;;;;;;;19.97;40.85;100850.31;5160870;28;20038;-83
2023/06/14 04:02:17;;;;;;;0.55;0.55;;;;;;;19.96;41.37;100858.38;5150107;28;20085;-82
2023/06/14 04:05:08;;;;;;;0.73;0.73;;;;;;;19.97;41.20;100846.78;5166974;28;20042;-82
2023/06/14 04:08:00;;;;;;;0.70;0.70;;;;;;;19.95;41.36;100857.53;5162816;28;20018;-83
2023/06/14 04:10:51;;;;;;;0.68;0.68;;;;;;;19.94;41.33;100857.66;5151089;28;20029;-82
2023/06/14 04:13:42;;;;;;;0.82;0.82;;;;;;;19.93;41.43;100861.25;5158840;28;20191;-82
2023/06/14 04:16:33;;;;;;;1.15;0.57;;;;;;;19.81;41.72;100863.72;5144810;28;20564;-82
2023/06/14 04:19:24;;;;;;;1.77;1.42;;;;;;;19.83;41.45;100863.63;5173748;28;20104;-82
2023/06/14 04:22:14;;;;;;;0.63;0.63;;;;;;;19.80;41.41;100870.00;5160824;28;20030;-81
2023/06/14 04:25:06;;;;;;;0.45;0.45;;;;;;;19.80;41.22;100864.66;5163896;28;20121;-82
2023/06/14 04:27:57;;;;;;;1.60;1.50;;;;;;;19.79;41.24;100876.25;5171683;28;20026;-82
2023/06/14 04:30:48;;;;;;;1.13;0.93;;;;;;;19.77;41.08;100883.50;5163472;28;20046;-81
2023/06/14 04:33:43;;;;;;;0.55;0.55;;;;;;;19.78;41.58;100874.59;5156734;28;20034;-82
2023/06/14 04:36:36;;;;;;;1.25;0.85;;;;;;;19.76;41.32;100876.47;5151621;28;20046;-82
2023/06/14 04:39:27;;;;;;;;;;;;;;;19.75;41.40;100866.78;5138620;28;20081;-82
2023/06/14 04:42:20;;;;;;;0.43;0.43;;;;;;;19.71;41.60;100870.56;5170558;28;19976;-81
2023/06/14 04:45:12;;;;;;;0.50;0.50;;;;;;;19.74;41.84;100878.38;5174323;28;20038;-82
2023/06/14 04:48:04;;;;;;;0.60;0.60;;;;;;;19.64;41.74;100880.78;5161381;28;20621;-82
2023/06/14 04:50:55;;;;;;;0.90;0.90;;;;;;;19.64;41.81;100887.88;5160985;28;20042;-81
2023/06/14 04:53:46;;;;;;;1.33;1.23;;;;;;;19.62;41.53;100897.78;5161475;28;20078;-82
2023/06/14 04:56:37;;;;;;;0.73;0.73;;;;;;;19.67;41.72;100898.34;5153519;28;20124;-81
2023/06/14 04:59:28;;;;;;;2.10;0.82;;;;;;;19.71;41.81;100899.84;5169072;28;20071;-80
2023/06/14 05:02:19;;;;;;;0.50;0.50;;;;;;;19.63;42.44;100902.13;5136411;28;20042;-81
2023/06/14 05:05:11;;;;;;;0.82;0.82;;;;;;;19.60;42.45;100907.66;5155074;28;20037;-81
2023/06/14 05:08:01;;;;;;;1.05;0.95;;;;;;;19.34;44.53;100905.66;5156571;28;20056;-81
2023/06/14 05:10:52;;;;;;;0.65;0.65;;;;;;;19.21;46.13;100901.19;5165117;28;20484;-81
2023/06/14 05:13:44;;;;;;;0.73;0.73;;;;;;;19.35;43.29;100901.22;5166908;28;20031;-81
2023/06/14 05:16:35;;;;;;;2.42;1.60;;;;;;;19.29;44.66;100909.56;5164649;28;20043;-80
2023/06/14 05:19:26;;;;;;;3.63;1.60;;;;;;;19.31;46.08;100908.53;5151415;28;20045;-80
2023/06/14 05:22:17;;;;;;;2.83;1.20;;;;;;;19.17;47.15;100912.00;5152309;28;20022;-81
2023/06/14 05:25:08;;;;;;;1.08;0.85;;;;;;;19.47;44.17;100918.22;5171892;28;20617;-80
2023/06/14 05:27:59;;;;;;;4.05;2.25;;;;;;;19.54;44.07;100906.25;5185320;28;20552;-81
2023/06/14 05:30:51;;;;;;;0.65;0.65;;;;;;;19.49;45.20;100901.19;5167043;28;20137;-81
2023/06/14 05:33:41;;;;;;;1.50;1.40;;;;;;;19.42;44.99;100910.53;5168480;28;20497;-81
2023/06/14 05:36:32;;;;;;;2.83;2.28;;;;;;;19.37;46.17;100917.06;5156259;28;20034;-81
2023/06/14 05:39:24;;;;;;;1.10;1.10;;;;;;;19.12;47.81;100916.75;5166758;28;20040;-82
2023/06/14 05:42:14;;;;;;;2.08;0.73;;;;;;;19.47;44.89;100919.06;5169981;28;20030;-81
2023/06/14 05:45:06;;;;;;;1.55;0.95;;;;;;;19.38;45.71;100924.94;5171743;28;20048;-81
2023/06/14 05:47:57;;;;;;;3.85;1.63;;;;;;;19.47;45.34;100919.06;5168032;28;20034;-80
2023/06/14 05:50:48;;;;;;;1.75;1.35;;;;;;;19.42;46.06;100925.63;5161615;28;20045;-80
2023/06/14 05:53:38;;;;;;;0.57;0.57;;;;;;;19.33;46.49;100927.91;5127536;28;20042;-80
2023/06/14 05:56:29;;;;;;;0.55;0.55;;;;;;;19.43;46.25;100933.53;5167593;28;20584;-81
2023/06/14 05:59:20;;;;;;;0.57;0.57;;;;;;;19.40;45.83;100939.00;5150107;28;20023;-81
2023/06/14 06:02:11;;;;;;;0.95;0.90;;;;;;;19.54;45.10;100940.84;5151777;28;20026;-81
2023/06/14 06:05:02;;;;;;;1.30;1.02;;;;;;;19.54;45.76;100940.00;5150802;28;20034;-81
2023/06/14 06:07:53;;;;;;;0.50;0.50;;;;;;;19.67;43.86;100941.78;5167261;28;20065;-81
2023/06/14 06:10:43;;;;;;;0.93;0.55;;;;;;;19.62;43.41;100940.38;5168633;28;20038;-80
2023/06/14 06:13:35;;;;;;;0.75;0.75;;;;;;;19.60;43.50;100952.91;5143836;28;20035;-81
2023/06/14 06:16:25;;;;;;;0.70;0.70;;;;;;;19.60;42.73;100952.91;5157468;28;20683;-81
2023/06/14 06:19:16;;;;;;;7.43;1.85;;;;;;;19.55;42.68;100957.66;5135538;28;20099;-80
2023/06/14 06:22:07;;;;;;;1.50;1.13;;;;;;;19.68;42.77;100955.97;5165830;28;20045;-81
2023/06/14 06:24:58;;;;;;;0.43;0.43;;;;;;;19.60;42.87;100959.09;5166108;28;20034;-81
2023/06/14 06:27:49;;;;;;;0.95;0.95;;;;;;;19.74;42.26;100958.22;5146821;28;20040;-81
2023/06/14 06:30:40;;;;;;;0.52;0.52;;;;;;;19.74;42.54;100963.56;5150359;28;20053;-80
2023/06/14 06:33:31;;;;;;;2.20;0.50;;;;;;;19.78;42.83;100958.91;5163226;28;20098;-81
2023/06/14 06:36:22;;;;;;;0.50;0.50;;;;;;;19.72;42.83;100964.59;5154263;28;20038;-81
2023/06/14 06:39:14;;;;;;;0.47;0.47;;;;;;;19.77;42.39;100962.50;5162960;28;20061;-81
2023/06/14 06:42:06;;;;;;;0.50;0.50;;;;;;;19.82;42.74;100968.41;5166563;28;20060;-81
2023/06/14 06:44:57;;;;;;;1.50;0.88;;;;;;;19.94;42.47;100977.47;5166225;28;20037;-81
2023/06/14 06:47:48;;;;;;;0.55;0.55;;;;;;;20.00;41.95;100971.75;5148148;28;20022;-81
2023/06/14 06:50:38;;;;;;;1.02;0.88;;;;;;;20.01;42.26;100976.13;5155756;28;20120;-82
2023/06/14 06:53:29;;;;;;;0.50;0.50;;;;;;;20.17;41.92;100981.34;5150918;28;20382;-81
2023/06/14 06:56:23;;;;;;;0.40;0.35;;;;;;;20.07;41.73;100981.06;5151344;28;20030;-82
2023/06/14 06:59:16;;;;;;;0.60;0.60;;;;;;;20.13;41.91;100985.16;5150468;28;20397;-81
2023/06/14 07:02:07;;;;;;;0.43;0.43;;;;;;;20.19;41.60;100978.59;5152803;28;20030;-80
2023/06/14 07:04:58;;;;;;;0.50;0.50;;;;;;;20.19;41.86;100989.25;5179390;28;20030;-80
2023/06/14 07:07:48;;;;;;;0.65;0.65;;;;;;;20.28;41.55;100991.34;5163380;28;20228;-81
2023/06/14 07:10:39;;;;;;;0.50;0.50;;;;;;;20.35;41.70;100989.97;5161420;28;20034;-81
2023/06/14 07:13:31;;;;;;;0.43;0.43;;;;;;;20.47;41.49;100992.78;5150093;28;20038;-81
2023/06/14 07:16:22;;;;;;;0.32;0.32;;;;;;;20.36;41.65;100989.03;5161430;28;20030;-82
2023/06/14 07:19:13;;;;;;;1.13;1.05;;;;;;;20.45;41.60;100990.25;5162130;28;20029;-82
2023/06/14 07:22:04;;;;;;;0.38;0.38;;;;;;;20.38;41.56;100989.75;5157348;28;20026;-82
2023/06/14 07:24:54;;;;;;;1.67;1.23;;;;;;;20.47;41.37;100992.78;5148605;28;20085;-82
2023/06/14 07:27:46;;;;;;;0.50;0.50;;;;;;;20.53;41.18;100993.25;5171285;28;20041;-82
2023/06/14 07:30:36;;;;;;;0.20;0.20;;;;;;;20.64;41.41;100989.88;5151768;28;20046;-82
2023/06/14 07:33:27;;;;;;;0.82;0.77;;;;;;;20.60;41.35;100993.72;5150766;28;20045;-82
2023/06/14 07:36:18;;;;;;;0.75;0.75;;;;;;;20.60;41.36;100989.25;5165801;28;20042;-80
2023/06/14 07:39:09;;;;;;;10.15;2.15;;;;;;;20.74;41.15;100993.69;5149996;28;20069;-82
2023/06/14 07:42:00;;;;;;;0.60;0.47;;;;;;;20.77;40.85;100994.47;5167564;28;20030;-80
2023/06/14 07:44:52;;;;;;;0.20;0.20;;;;;;;20.84;40.50;100993.94;5169433;28;20106;-80
2023/06/14 07:47:43;;;;;;;0.50;0.50;;;;;;;20.87;39.92;100995.53;5158596;28;20041;-80
2023/06/14 07:50:33;;;;;;;0.50;0.50;;;;;;;20.88;40.35;100998.13;5160686;28;20034;-81
2023/06/14 07:53:25;;;;;;;1.30;1.13;;;;;;;20.95;39.97;100992.38;5168977;28;20468;-81
2023/06/14 07:56:16;;;;;;;0.52;0.50;;;;;;;21.16;39.83;100992.75;5162196;28;20037;-81
2023/06/14 07:59:07;;;;;;;0.28;0.28;;;;;;;21.06;39.01;100996.03;5168684;28;20030;-80
2023/06/14 08:01:58;;;;;;;0.85;0.40;;;;;;;21.05;39.21;100991.66;5171115;28;20040;-80
2023/06/14 08:04:49;;;;;;;8.25;0.47;;;;;;;21.07;39.09;100989.75;5155446;28;20117;-80
2023/06/14 08:07:40;;;;;;;0.38;0.38;;;;;;;21.18;39.29;100990.84;5154308;28;20107;-81
2023/06/14 08:10:31;;;;;;;0.50;0.50;;;;;;;21.23;39.40;100986.03;5154112;28;20112;-81
2023/06/14 08:13:22;;;;;;;0.30;0.30;;;;;;;21.41;38.08;100983.06;5150279;28;20053;-81
2023/06/14 08:16:12;;;;;;;0.25;0.25;;;;;;;21.36;38.25;100986.91;5141944;28;20030;-80
2023/06/14 08:19:03;;;;;;;0.22;0.22;;;;;;;21.39;37.56;100980.53;5155263;28;20045;-80
2023/06/14 08:21:55;;;;;;;0.20;0.20;;;;;;;21.51;37.30;100978.81;5147143;28;20030;-80
2023/06/14 08:24:45;;;;;;;0.30;0.30;;;;;;;21.48;35.44;100982.56;5177616;28;20043;-81
2023/06/14 08:27:36;;;;;;;3.00;0.50;;;;;;;21.51;34.91;100984.16;5148137;28;20033;-80
2023/06/14 08:30:27;;;;;;;0.20;0.20;;;;;;;21.52;34.07;100976.03;5153664;28;20073;-81
2023/06/14 08:33:18;;;;;;;0.20;0.20;;;;;;;21.58;35.25;100993.47;5172451;28;20057;-80
2023/06/14 08:36:10;;;;;;;0.30;0.30;;;;;;;21.64;33.41;100981.53;5161643;28;20158;-80
2023/06/14 08:39:01;;;;;;;0.50;0.30;;;;;;;21.77;34.09;100984.19;5170761;28;20076;-80
2023/06/14 08:41:52;;;;;;;0.40;0.40;;;;;;;21.74;33.28;100987.06;5148486;28;20100;-81
2023/06/14 08:44:43;;;;;;;0.20;0.20;;;;;;;21.83;31.21;100981.06;5155738;28;20056;-81
2023/06/14 08:47:36;;;;;;;0.20;0.20;;;;;;;21.85;32.52;100981.84;5180083;28;20026;-81
2023/06/14 08:50:31;;;;;;;0.30;0.30;;;;;;;21.89;31.74;100982.47;5158327;28;20030;-81
2023/06/14 08:53:22;;;;;;;0.25;0.25;;;;;;;21.89;31.23;100977.13;5163582;28;20049;-81
2023/06/14 08:56:14;;;;;;;0.20;0.20;;;;;;;22.04;30.95;100980.50;5173529;28;20022;-80
2023/06/14 08:59:06;;;;;;;0.20;0.20;;;;;;;21.97;31.62;100980.09;5161230;28;20026;-80
2023/06/14 09:01:57;;;;;;;3.28;0.98;;;;;;;22.00;32.21;100975.41;5162076;28;20049;-80
2023/06/14 09:04:49;;;;;;;0.35;0.35;;;;;;;22.05;32.14;100972.41;5161923;28;20040;-80
2023/06/14 09:07:41;;;;;;;0.10;0.10;;;;;;;22.22;32.66;100984.53;5188910;28;20037;-81
2023/06/14 09:10:37;;;;;;;0.20;0.20;;;;;;;22.21;31.00;100982.81;5189633;28;20061;-80
2023/06/14 09:13:27;;;;;;;1.38;1.05;;;;;;;22.24;30.53;100981.72;5172043;28;20293;-79
2023/06/14 09:16:18;;;;;;;0.15;0.15;;;;;;;22.24;31.49;100987.94;5180906;28;20054;-80
2023/06/14 09:19:20;;;;;;;0.68;0.68;;;;;;;22.37;31.37;100987.03;5171587;28;20283;-80
2023/06/14 09:22:11;;;;;;;0.20;0.20;;;;;;;22.39;32.19;100985.13;5144146;28;20650;-80
2023/06/14 09:25:02;;;;;;;0.30;0.30;;;;;;;22.37;31.74;100985.25;5171764;28;20056;-81
2023/06/14 09:27:53;;;;;;;0.30;0.30;;;;;;;22.38;31.91;100986.09;5159016;28;20255;-82
2023/06/14 09:30:44;;;;;;;0.20;0.20;;;;;;;22.41;31.83;100983.22;5152991;28;20501;-81
2023/06/14 09:33:35;;;;;;;0.40;0.40;;;;;;;22.59;32.88;100989.91;5152783;28;20018;-81
2023/06/14 09:36:27;;;;;;;0.20;0.20;;;;;;;22.67;32.09;100993.81;5169000;28;20536;-81
2023/06/14 09:39:18;;;;;;;0.30;0.30;;;;;;;22.60;32.78;100993.41;5160004;28;20052;-81
2023/06/14 09:42:20;;;;;;;0.30;0.30;;;;;;;22.68;32.12;100995.53;5130872;28;20129;-81
2023/06/14 09:45:13;;;;;;;0.17;0.17;;;;;;;22.60;32.03;100999.59;5144463;28;20062;-81
2023/06/14 09:48:04;;;;;;;0.57;0.57;;;;;;;22.70;32.39;101006.94;5162021;28;20041;-81
2023/06/14 09:50:57;;;;;;;0.20;0.20;;;;;;;22.69;32.70;100999.91;5165834;28;20077;-81
2023/06/14 09:53:49;;;;;;;0.30;0.30;;;;;;;22.74;32.96;100995.06;5169704;28;20034;-81
2023/06/14 09:56:49;;;;;;;2.30;0.55;;;;;;;22.78;32.83;100999.22;5153638;28;20069;-81
2023/06/14 09:59:42;;;;;;;0.32;0.32;;;;;;;22.84;33.57;100995.22;5155337;28;20124;-80
2023/06/14 10:02:37;;;;;;;0.50;0.50;;;;;;;22.91;33.27;100983.97;5170198;28;20030;-80
2023/06/14 10:05:47;;;;;;;0.35;0.35;;;;;;;22.99;32.12;100985.22;5170038;28;20042;-80
2023/06/14 10:08:46;;;;;;;0.28;0.28;;;;;;;23.07;32.44;100994.34;5156203;28;20037;-80
2023/06/14 10:11:43;;;;;;;0.20;0.20;;;;;;;23.05;33.84;101012.38;5175377;28;20125;-80
2023/06/14 10:14:34;;;;;;;0.20;0.20;;;;;;;23.01;34.55;100992.16;5175851;28;20160;-80
2023/06/14 10:17:35;;;;;;;0.40;0.40;;;;;;;23.00;34.99;100994.94;5166134;28;20042;-81
2023/06/14 10:20:30;;;;;;;0.65;0.65;;;;;;;23.08;34.66;100992.53;5185698;28;20030;-78
2023/06/14 10:23:24;;;;;;;1.58;1.13;;;;;;;23.12;34.70;101004.72;5165430;28;20042;-79
2023/06/14 10:26:22;;;;;;;0.20;0.20;;;;;;;23.07;34.31;100997.03;5164619;28;20049;-80
2023/06/14 10:29:13;;;;;;;0.30;0.30;;;;;;;23.09;34.08;101003.13;5150571;28;20022;-80
2023/06/14 10:32:04;;;;;;;0.28;0.28;;;;;;;23.07;34.49;101002.38;5144971;28;20030;-80
2023/06/14 10:34:58;;;;;;;0.85;0.70;;;;;;;23.22;34.33;101007.59;5171350;28;20070;-81
2023/06/14 10:37:49;;;;;;;1.10;1.05;;;;;;;23.16;33.59;101008.00;5147851;28;20070;-81
2023/06/14 10:40:41;;;;;;;0.73;0.68;;;;;;;23.14;33.99;101001.94;5141782;28;20493;-80
2023/06/14 10:43:31;;;;;;;0.20;0.20;;;;;;;23.17;33.81;100999.88;5152428;28;20804;-81
2023/06/14 10:46:28;;;;;;;0.35;0.35;;;;;;;23.21;33.66;100997.84;5165649;28;20030;-80
2023/06/14 10:49:20;;;;;;;0.65;0.60;;;;;;;23.17;32.79;100990.97;5165329;28;20045;-80
2023/06/14 10:52:21;;;;;;;0.20;0.20;;;;;;;23.23;33.03;100991.41;5162532;28;20511;-80
2023/06/14 10:55:17;;;;;;;0.35;0.35;;;;;;;23.27;33.06;100995.53;5165020;28;20054;-80
2023/06/14 10:58:08;;;;;;;0.43;0.43;;;;;;;23.22;33.05;100992.38;5168179;28;20030;-81
2023/06/14 11:00:59;;;;;;;0.30;0.30;;;;;;;23.32;32.70;100995.19;5160412;28;20034;-81
2023/06/14 11:03:53;;;;;;;0.40;0.40;;;;;;;23.36;32.21;101001.16;5158331;28;20169;-81
2023/06/14 11:06:48;;;;;;;0.30;0.30;;;;;;;23.42;32.95;101006.06;5139172;28;20034;-81
2023/06/14 11:10:03;;;;;;;0.20;0.20;;;;;;;23.45;32.95;101005.81;5152138;28;20501;-81
2023/06/14 11:12:55;;;;;;;0.17;0.17;;;;;;;23.53;32.74;101000.69;5166245;28;20086;-82
2023/06/14 11:15:52;;;;;;;0.52;0.52;;;;;;;23.51;32.63;100999.13;5165492;28;20077;-81
2023/06/14 11:18:45;;;;;;;1.25;0.40;;;;;;;23.58;33.13;101000.34;5132665;28;20043;-81
2023/06/14 11:21:40;;;;;;;0.43;0.43;;;;;;;23.70;33.08;100991.38;5142279;28;20049;-82
2023/06/14 11:24:32;;;;;;;0.75;0.75;;;;;;;23.71;32.58;100992.22;5150373;28;20126;-82
2023/06/14 11:27:27;;;;;;;0.30;0.30;;;;;;;23.86;33.26;100991.00;5152385;28;20057;-81
2023/06/14 11:30:18;;;;;;;1.00;0.85;;;;;;;24.00;33.15;100989.09;5168873;28;20026;-81
2023/06/14 11:33:18;;;;;;;0.40;0.40;;;;;;;23.98;33.39;100986.50;5156869;28;20046;-80
2023/06/14 11:36:09;;;;;;;0.20;0.20;;;;;;;23.96;32.96;100987.63;5179759;28;20049;-83
2023/06/14 11:39:08;;;;;;;0.20;0.20;;;;;;;24.05;33.27;100978.84;5165034;28;20038;-81
2023/06/14 11:42:01;;;;;;;0.32;0.32;;;;;;;24.19;33.26;100973.22;5150912;28;20042;-81
2023/06/14 11:44:53;;;;;;;0.13;0.13;;;;;;;24.15;32.85;100981.63;5154936;28;20061;-82
2023/06/14 11:47:44;;;;;;;0.30;0.30;;;;;;;24.35;33.13;100982.69;5172489;28;20170;-82
2023/06/14 11:50:38;;;;;;;0.82;0.82;;;;;;;24.40;33.90;100974.28;5168969;28;20030;-84
2023/06/14 11:53:30;;;;;;;0.28;0.28;;;;;;;24.62;33.60;100973.34;5173340;28;20050;-83
2023/06/14 11:56:21;;;;;;;1.08;1.05;;;;;;;24.63;33.96;100972.38;5159885;28;20310;-81
2023/06/14 11:59:13;;;;;;;0.57;0.57;;;;;;;24.65;33.50;100973.94;5171942;28;20054;-82
2023/06/14 12:02:04;;;;;;;2.20;0.50;;;;;;;24.68;32.81;100975.56;5175271;28;20037;-82
2023/06/14 12:04:55;;;;;;;2.03;1.15;;;;;;;24.87;33.42;100985.63;5173160;28;21257;-82
2023/06/14 12:07:46;;;;;;;0.68;0.68;;;;;;;24.88;33.48;100970.38;5158893;28;20034;-82
2023/06/14 12:10:44;;;;;;;1.00;0.55;;;;;;;24.93;32.90;100968.13;5185370;28;20030;-81
2023/06/14 12:13:37;;;;;;;0.30;0.30;;;;;;;25.00;33.84;100963.94;5179734;28;20030;-81
2023/06/14 12:16:33;;;;;;;0.20;0.20;;;;;;;25.37;32.79;100965.34;5180818;28;20030;-82
2023/06/14 12:19:26;;;;;;;0.30;0.30;;;;;;;25.20;32.93;100966.78;5186249;28;20037;-81
2023/06/14 12:22:16;;;;;;;0.28;0.28;;;;;;;25.40;32.90;100971.34;5145259;28;20112;-82
2023/06/14 12:25:09;;;;;;;0.28;0.28;;;;;;;25.37;32.84;100968.88;5174112;28;20038;-82
2023/06/14 12:28:08;;;;;;;0.32;0.30;;;;;;;25.61;32.79;100959.69;5161870;28;20026;-83
2023/06/14 12:30:59;;;;;;;0.20;0.20;;;;;;;25.64;31.78;100963.94;5162969;28;20197;-81
2023/06/14 12:33:50;;;;;;;1.23;0.85;;;;;;;25.81;31.48;100968.69;5157040;28;20229;-80
2023/06/14 12:36:44;;;;;;;0.10;0.10;;;;;;;25.66;32.48;100964.66;5179944;28;20061;-81
2023/06/14 12:39:35;;;;;;;0.30;0.30;;;;;;;25.99;32.50;100963.50;5170226;28;20041;-81
2023/06/14 12:42:25;;;;;;;0.50;0.50;;;;;;;26.00;32.57;100962.53;5165367;28;20034;-81
2023/06/14 12:45:16;;;;;;;15.43;1.80;;;;;;;26.28;32.52;100956.56;5171982;28;20496;-80
2023/06/14 12:48:08;;;;;;;0.22;0.22;;;;;;;26.23;32.15;100955.13;5157637;28;20059;-80
2023/06/14 12:50:59;;;;;;;0.47;0.47;;;;;;;26.20;31.20;100965.31;5140153;28;20062;-81
2023/06/14 12:53:50;;;;;;;0.65;0.30;;;;;;;26.34;31.81;100959.53;5155037;28;20073;-81
2023/06/14 12:56:43;;;;;;;0.40;0.40;;;;;;;26.45;31.62;100955.03;5168506;28;20035;-81
2023/06/14 12:59:33;;;;;;;0.40;0.40;;;;;;;26.55;31.82;100961.28;5181986;28;20046;-82
2023/06/14 13:02:25;;;;;;;0.20;0.20;;;;;;;26.73;31.49;100953.34;5170729;28;20038;-81
2023/06/14 13:05:16;;;;;;;0.95;0.75;;;;;;;26.56;30.86;100957.59;5146321;28;20038;-81
2023/06/14 13:08:08;;;;;;;0.40;0.40;;;;;;;26.74;30.83;100951.47;5171149;28;20498;-81
2023/06/14 13:11:00;;;;;;;0.20;0.20;;;;;;;26.66;30.29;100957.59;5168659;28;20117;-81
2023/06/14 13:13:50;;;;;;;0.50;0.50;;;;;;;26.80;30.19;100948.28;5165395;28;20065;-81
2023/06/14 13:16:41;;;;;;;0.10;0.10;;;;;;;26.93;29.95;100945.28;5149860;28;20048;-81
2023/06/14 13:19:32;;;;;;;0.40;0.40;;;;;;;26.79;30.97;100947.41;5151766;28;20123;-81
2023/06/14 13:22:23;;;;;;;0.22;0.22;;;;;;;26.86;30.23;100951.22;5159103;28;20762;-81